createdAt,value
2022-10-19T00:02:00.793Z,71.86
2022-10-19T00:04:47.700Z,72.14
2022-10-19T00:07:34.935Z,72.34
2022-10-19T00:10:22.213Z,72.58
2022-10-19T00:13:09.096Z,71.53
2022-10-19T00:15:59.299Z,71.97
2022-10-19T00:18:46.392Z,71.85
2022-10-19T00:21:36.074Z,72.33
2022-10-19T00:24:23.059Z,72.94
2022-10-19T00:27:09.915Z,71.79
2022-10-19T00:29:57.132Z,72.07
2022-10-19T00:32:44.034Z,72.41
2022-10-19T00:35:31.109Z,72.96
2022-10-19T00:38:17.955Z,71.98
2022-10-19T00:41:06.109Z,72.34
2022-10-19T00:44:20.664Z,72.23
2022-10-19T00:47:11.093Z,72.16
2022-10-19T00:50:02.605Z,72.90
2022-10-19T00:52:50.514Z,72.23
2022-10-19T00:55:37.417Z,71.95
2022-10-19T00:58:24.524Z,72.43
2022-10-19T01:01:11.401Z,72.90
2022-10-19T01:03:59.344Z,72.50
2022-10-19T01:06:47.122Z,72.81
2022-10-19T01:09:34.029Z,73.13
2022-10-19T01:12:29.656Z,72.28
2022-10-19T01:15:38.579Z,72.30
2022-10-19T01:19:15.095Z,72.21
2022-10-19T01:22:08.226Z,72.63
2022-10-19T01:28:20.937Z,72.30
2022-10-19T01:31:36.659Z,72.30
2022-10-19T01:34:26.663Z,72.86
2022-10-19T01:37:37.883Z,72.26
2022-10-19T01:40:31.085Z,72.51
2022-10-19T01:43:39.526Z,72.36
2022-10-19T01:46:41.740Z,72.73
2022-10-19T01:49:35.696Z,73.03
2022-10-19T01:52:26.935Z,72.41
2022-10-19T01:55:17.604Z,73.13
2022-10-19T01:58:11.754Z,73.13
2022-10-19T02:01:03.465Z,73.14
2022-10-19T02:03:51.663Z,73.18
2022-10-19T02:06:38.967Z,72.95
2022-10-19T02:09:26.159Z,73.17
2022-10-19T02:12:19.620Z,73.02
2022-10-19T02:15:12.337Z,72.72
2022-10-19T02:18:06.358Z,72.63
2022-10-19T02:20:55.716Z,72.48
2022-10-19T02:23:48.341Z,72.60
2022-10-19T02:26:37.988Z,72.81
2022-10-19T02:29:25.093Z,72.83
2022-10-19T02:32:13.047Z,73.14
2022-10-19T02:35:00.471Z,73.25
2022-10-19T02:37:47.487Z,72.94
2022-10-19T02:40:34.939Z,73.22
2022-10-19T02:43:26.258Z,73.40
2022-10-19T02:46:26.203Z,72.65
2022-10-19T02:49:14.277Z,72.88
2022-10-19T02:52:15.780Z,73.21
2022-10-19T02:55:04.681Z,72.66
2022-10-19T02:57:51.707Z,73.23
2022-10-19T03:00:38.806Z,73.35
2022-10-19T03:03:25.807Z,72.77
2022-10-19T03:06:12.753Z,73.02
2022-10-19T03:08:59.621Z,72.65
2022-10-19T03:11:46.649Z,73.22
2022-10-19T03:14:33.507Z,72.86
2022-10-19T03:17:20.655Z,72.89
2022-10-19T05:19:09.080Z,73.15
2022-10-19T05:21:56.079Z,73.20
2022-10-19T05:24:43.031Z,73.53
2022-10-19T05:27:29.826Z,73.23
2022-10-19T05:30:17.139Z,73.34
2022-10-19T05:33:03.941Z,73.75
2022-10-19T05:35:50.895Z,73.59
2022-10-19T05:38:37.778Z,74.19
2022-10-19T05:41:25.019Z,73.52
2022-10-19T05:44:17.388Z,73.66
2022-10-19T05:47:05.119Z,73.52
2022-10-19T05:49:52.041Z,73.41
2022-10-19T05:52:39.142Z,73.36
2022-10-19T05:55:26.627Z,73.97
2022-10-19T05:58:13.623Z,73.72
2022-10-19T06:01:00.464Z,73.73
2022-10-19T06:03:48.535Z,73.59
2022-10-19T06:06:35.321Z,73.78
2022-10-19T06:09:22.376Z,73.98
2022-10-19T06:12:09.185Z,73.78
2022-10-19T06:14:56.265Z,73.97
2022-10-19T06:17:43.071Z,74.11
2022-10-19T06:20:30.490Z,73.72
2022-10-19T06:23:17.488Z,73.61
2022-10-19T06:26:04.787Z,74.00
2022-10-19T06:28:51.891Z,73.49
2022-10-19T06:31:38.943Z,73.99
2022-10-19T06:34:26.411Z,74.11
2022-10-19T06:37:13.543Z,73.87
2022-10-19T06:40:04.721Z,73.87
2022-10-19T06:42:54.144Z,74.01
2022-10-19T06:45:41.094Z,73.76
2022-10-19T06:48:28.372Z,73.95
2022-10-19T06:51:19.683Z,73.79
2022-10-19T06:54:06.847Z,73.51
2022-10-19T06:56:53.797Z,74.31
2022-10-19T06:59:40.838Z,73.92
2022-10-19T07:02:27.692Z,74.26
2022-10-19T07:05:14.712Z,74.30
2022-10-19T07:08:01.601Z,74.50
2022-10-19T07:10:28.696Z,73.83
2022-10-19T07:12:56.509Z,73.85
2022-10-19T07:15:23.449Z,73.74
2022-10-19T07:18:10.357Z,74.00
2022-10-19T07:20:57.676Z,73.86
2022-10-19T07:23:46.596Z,73.63
2022-10-19T07:26:39.799Z,74.25
2022-10-19T07:29:26.748Z,74.03
2022-10-19T07:32:13.575Z,74.14
2022-10-19T07:35:00.482Z,73.93
2022-10-19T07:37:47.295Z,73.86
2022-10-19T07:40:34.269Z,74.01
2022-10-19T07:43:21.261Z,74.01
2022-10-19T07:46:08.102Z,74.15
2022-10-19T07:48:55.437Z,74.36
2022-10-19T07:51:43.028Z,74.46
2022-10-19T07:54:29.925Z,74.47
2022-10-19T07:57:17.040Z,75.06
2022-10-19T08:00:03.948Z,74.95
2022-10-19T08:03:43.161Z,74.90
2022-10-19T08:06:06.053Z,74.91
2022-10-19T08:08:53.118Z,74.03
2022-10-19T08:11:49.134Z,74.62
2022-10-19T08:14:36.037Z,74.44
2022-10-19T08:17:23.031Z,74.74
2022-10-19T08:20:10.025Z,74.27
2022-10-19T08:22:56.446Z,74.94
2022-10-19T08:25:26.029Z,75.08
2022-10-19T08:27:53.013Z,74.87
2022-10-19T08:30:20.156Z,74.20
2022-10-19T08:33:07.048Z,74.18
2022-10-19T08:35:35.169Z,74.49
2022-10-19T08:38:22.410Z,74.54
2022-10-19T08:41:09.312Z,74.70
2022-10-19T08:44:03.145Z,75.02
2022-10-19T08:47:23.325Z,75.86
2022-10-19T08:50:20.631Z,75.13
2022-10-19T08:53:14.511Z,75.43
2022-10-19T08:56:45.976Z,76.20
2022-10-19T08:59:53.463Z,75.20
2022-10-19T09:02:58.709Z,75.88
2022-10-19T09:06:01.226Z,74.72
2022-10-19T09:08:48.419Z,74.85
2022-10-19T09:11:39.840Z,76.01
2022-10-19T09:14:51.736Z,75.67
2022-10-19T09:17:38.595Z,75.66
2022-10-19T09:20:57.939Z,76.36
2022-10-19T09:23:49.817Z,76.52
2022-10-19T09:26:42.634Z,76.00
2022-10-19T09:29:35.888Z,76.68
2022-10-19T09:32:26.200Z,76.73
2022-10-19T09:35:16.635Z,76.58
2022-10-19T09:37:48.997Z,76.57
2022-10-19T09:40:42.312Z,76.58
2022-10-19T09:43:29.920Z,76.88
2022-10-19T09:46:31.178Z,76.81
2022-10-19T09:49:20.573Z,76.31
2022-10-19T09:52:09.968Z,76.18
2022-10-19T09:54:59.193Z,76.12
2022-10-19T09:57:46.007Z,76.67
2022-10-19T10:00:39.948Z,76.73
2022-10-19T10:03:07.801Z,76.41
2022-10-19T10:05:59.542Z,76.81
2022-10-19T10:08:50.280Z,76.29
2022-10-19T10:11:51.127Z,76.73
2022-10-19T10:14:37.936Z,76.62
2022-10-19T10:17:37.230Z,76.59
2022-10-19T10:20:54.056Z,76.32
2022-10-19T10:23:45.688Z,76.46
2022-10-19T10:26:19.805Z,76.01
2022-10-19T10:28:49.605Z,76.20
2022-10-19T10:31:23.290Z,76.41
2022-10-19T10:34:16.243Z,76.30
2022-10-19T10:36:53.528Z,75.93
2022-10-19T10:39:40.680Z,75.77
2022-10-19T10:42:35.322Z,75.75
2022-10-19T10:45:23.288Z,75.81
2022-10-19T10:48:11.090Z,75.97
2022-10-19T10:50:58.479Z,75.60
2022-10-19T10:53:56.086Z,75.84
2022-10-19T10:56:49.491Z,75.47
2022-10-19T10:59:45.649Z,75.07
2022-10-19T11:03:12.612Z,75.39
2022-10-19T11:06:06.720Z,75.41
2022-10-19T11:09:04.015Z,75.36
2022-10-19T11:12:03.516Z,74.96
2022-10-19T11:15:09.947Z,74.96
2022-10-19T11:17:59.868Z,75.14
2022-10-19T11:20:50.900Z,74.50
2022-10-19T11:23:46.983Z,74.02
2022-10-19T11:27:00.028Z,74.18
2022-10-19T11:30:24.728Z,74.03
2022-10-19T11:33:30.464Z,74.03
2022-10-19T11:36:20.261Z,73.84
2022-10-19T11:39:33.835Z,73.74
2022-10-19T11:42:26.619Z,73.42
2022-10-19T11:45:31.677Z,73.53
2022-10-19T11:48:43.844Z,73.37
2022-10-19T11:51:52.741Z,73.31
2022-10-19T11:54:58.464Z,72.67
2022-10-19T11:57:49.911Z,72.38
2022-10-19T12:00:40.249Z,72.32
2022-10-19T12:04:06.513Z,72.31
2022-10-19T12:07:11.206Z,72.48
2022-10-19T12:10:20.139Z,71.73
2022-10-19T12:13:14.245Z,71.96
2022-10-19T12:16:11.752Z,72.08
2022-10-19T12:19:13.480Z,71.83
2022-10-19T12:22:02.047Z,71.28
2022-10-19T12:24:50.510Z,70.93
2022-10-19T12:27:44.691Z,70.74
2022-10-19T12:30:42.344Z,70.48
2022-10-19T12:33:46.929Z,71.20
2022-10-19T12:36:43.420Z,70.64
2022-10-19T12:39:47.764Z,70.02
2022-10-19T12:43:11.441Z,70.80
2022-10-19T12:46:28.303Z,70.28
2022-10-19T12:49:54.297Z,70.01
2022-10-19T12:53:03.909Z,69.87
2022-10-19T12:55:51.839Z,69.51
2022-10-19T12:58:47.670Z,69.82
2022-10-19T13:01:56.236Z,69.17
2022-10-19T13:05:12.521Z,69.01
2022-10-19T13:07:59.567Z,69.40
2022-10-19T13:10:48.814Z,69.55
2022-10-19T13:14:20.785Z,68.85
2022-10-19T13:17:27.220Z,69.22
2022-10-19T13:20:34.506Z,69.43
2022-10-19T13:23:21.339Z,68.50
2022-10-19T13:26:50.724Z,68.26
2022-10-19T13:29:46.157Z,68.09
2022-10-19T13:32:51.466Z,68.05
2022-10-19T13:35:54.584Z,67.95
2022-10-19T13:38:45.369Z,68.55
2022-10-19T13:41:38.595Z,68.22
2022-10-19T13:44:49.494Z,67.95
2022-10-19T13:48:03.043Z,67.64
2022-10-19T13:51:06.400Z,67.60
2022-10-19T13:54:33.250Z,67.92
2022-10-19T13:57:36.809Z,68.17
2022-10-19T14:00:33.986Z,67.31
2022-10-19T14:04:02.817Z,67.45
2022-10-19T14:07:10.685Z,67.23
2022-10-19T14:09:57.483Z,67.85
2022-10-19T14:12:47.743Z,66.94
2022-10-19T14:15:42.276Z,67.00
2022-10-19T14:18:53.789Z,67.23
2022-10-19T14:21:52.138Z,67.16
2022-10-19T14:24:41.496Z,67.18
2022-10-19T14:27:38.744Z,67.32
2022-10-19T14:30:26.773Z,67.29
2022-10-19T14:33:14.943Z,67.80
2022-10-19T14:36:05.741Z,67.44
2022-10-19T14:38:54.063Z,67.21
2022-10-19T14:41:50.659Z,67.40
2022-10-19T14:45:01.871Z,67.40
2022-10-19T14:47:48.923Z,67.35
2022-10-19T14:53:49.707Z,67.36
2022-10-19T14:56:43.524Z,67.53
2022-10-19T14:59:55.248Z,67.34
2022-10-19T15:02:47.544Z,66.82
2022-10-19T15:05:40.976Z,66.81
2022-10-19T15:09:02.020Z,67.33
2022-10-19T15:11:56.430Z,66.74
2022-10-19T15:14:49.090Z,66.69
2022-10-19T15:17:52.923Z,67.60
2022-10-19T15:21:08.190Z,67.63
2022-10-19T15:24:06.191Z,66.85
2022-10-19T15:27:06.470Z,66.87
2022-10-19T15:29:55.995Z,67.56
2022-10-19T15:32:45.556Z,67.29
2022-10-19T15:35:21.546Z,67.72
2022-10-19T15:38:10.203Z,67.54
2022-10-19T15:41:00.904Z,67.02
2022-10-19T15:43:50.415Z,67.64
2022-10-19T15:46:49.653Z,67.28
2022-10-19T15:49:36.457Z,66.95
2022-10-19T15:52:40.425Z,67.58
2022-10-19T15:55:27.317Z,67.46
2022-10-19T15:58:18.957Z,67.70
2022-10-19T16:01:05.818Z,67.63
2022-10-19T16:03:53.524Z,67.17
2022-10-19T16:06:44.816Z,67.57
2022-10-19T16:09:38.855Z,68.14
2022-10-19T16:12:25.636Z,67.70
2022-10-19T16:15:13.383Z,68.19
2022-10-19T16:18:00.408Z,67.34
2022-10-19T16:20:49.298Z,67.75
2022-10-19T16:23:39.409Z,67.98
2022-10-19T16:26:29.142Z,68.07
2022-10-19T16:29:16.287Z,67.62
2022-10-19T16:32:03.167Z,68.03
2022-10-19T16:34:50.070Z,68.31
2022-10-19T16:37:37.381Z,67.92
2022-10-19T16:40:24.898Z,67.93
2022-10-19T16:43:11.819Z,67.45
2022-10-19T16:46:02.919Z,67.74
2022-10-19T16:48:50.135Z,67.93
2022-10-19T16:52:03.370Z,67.80
2022-10-19T16:54:50.346Z,68.19
2022-10-19T16:57:37.142Z,67.71
2022-10-19T17:00:26.109Z,67.88
2022-10-19T17:03:13.096Z,68.23
2022-10-19T17:06:00.660Z,68.15
2022-10-19T17:09:30.193Z,68.15
2022-10-19T17:11:57.483Z,68.29
2022-10-19T17:14:44.263Z,67.64
2022-10-19T17:17:31.529Z,67.99
2022-10-19T17:20:18.598Z,68.14
2022-10-19T17:23:05.584Z,67.76
2022-10-19T17:25:52.500Z,67.97
2022-10-19T17:28:39.424Z,68.20
2022-10-19T17:31:32.395Z,67.70
2022-10-19T17:34:19.722Z,67.80
2022-10-19T17:37:07.240Z,68.28
2022-10-19T17:39:54.357Z,67.63
2022-10-19T17:42:41.273Z,67.58
2022-10-19T17:45:29.811Z,67.59
2022-10-19T17:48:22.283Z,67.59
2022-10-19T17:51:21.730Z,68.17
2022-10-19T17:54:16.951Z,67.84
2022-10-19T17:57:14.296Z,68.07
2022-10-19T18:00:03.256Z,67.67
2022-10-19T18:02:59.396Z,67.34
2022-10-19T18:11:56.903Z,68.24
2022-10-19T18:20:46.395Z,68.21
2022-10-19T18:23:33.260Z,67.89
2022-10-19T18:26:40.753Z,67.65
2022-10-19T18:29:35.101Z,67.78
2022-10-19T18:32:22.090Z,68.00
2022-10-19T18:35:09.121Z,68.06
2022-10-19T18:37:56.060Z,67.56
2022-10-19T18:40:42.997Z,68.15
2022-10-19T18:43:30.115Z,68.06
2022-10-19T18:46:18.298Z,67.86
2022-10-19T18:49:05.552Z,67.92
2022-10-19T18:51:55.392Z,68.25
2022-10-19T18:54:44.356Z,67.56
2022-10-19T18:57:31.919Z,68.11
2022-10-19T19:00:19.168Z,67.97
2022-10-19T19:03:12.851Z,68.11
2022-10-19T19:05:59.923Z,67.91
2022-10-19T19:08:47.063Z,68.29
2022-10-19T19:11:41.570Z,68.31
2022-10-19T19:14:38.834Z,68.47
2022-10-19T19:17:25.754Z,68.32
2022-10-19T19:20:12.632Z,68.23
2022-10-19T19:22:59.594Z,68.26
2022-10-19T19:25:46.392Z,68.48
2022-10-19T19:28:35.471Z,68.33
2022-10-19T19:31:25.935Z,68.48
2022-10-19T19:34:12.961Z,68.56
2022-10-19T19:37:18.603Z,68.64
2022-10-19T19:47:54.862Z,68.38
2022-10-19T19:51:02.852Z,68.52
2022-10-19T19:53:57.786Z,68.55
2022-10-19T19:56:44.894Z,68.22
2022-10-19T19:59:32.917Z,68.72
2022-10-19T20:02:19.760Z,68.64
2022-10-19T20:05:06.767Z,68.56
2022-10-19T20:07:34.067Z,69.00
2022-10-19T20:10:21.227Z,68.88
2022-10-19T20:13:08.346Z,68.72
2022-10-19T20:15:59.762Z,68.67
2022-10-19T20:18:46.881Z,68.80
2022-10-19T20:21:34.588Z,68.74
2022-10-19T20:24:21.752Z,68.46
2022-10-19T20:27:08.850Z,68.80
2022-10-19T20:29:56.008Z,68.94
2022-10-19T20:32:43.103Z,68.79
2022-10-19T20:35:30.486Z,68.74
2022-10-19T20:38:17.412Z,68.73
2022-10-19T20:41:06.998Z,68.68
2022-10-19T20:43:56.572Z,68.81
2022-10-19T20:46:46.099Z,69.27
2022-10-19T20:49:33.151Z,68.98
2022-10-19T20:52:20.162Z,69.14
2022-10-19T20:55:08.429Z,68.93
2022-10-19T20:57:55.265Z,69.09
2022-10-19T21:00:42.341Z,68.95
2022-10-19T21:03:29.194Z,68.90
2022-10-19T21:06:16.209Z,69.28
2022-10-19T21:09:03.310Z,69.21
2022-10-19T21:11:52.621Z,69.17
2022-10-19T21:14:44.956Z,69.16
2022-10-19T21:20:24.294Z,69.20
2022-10-19T21:23:11.142Z,69.50
2022-10-19T21:25:58.054Z,69.30
2022-10-19T21:28:45.155Z,69.46
2022-10-19T21:31:32.193Z,69.25
2022-10-19T21:34:19.131Z,69.59
2022-10-19T21:37:06.336Z,69.36
2022-10-19T21:39:53.271Z,69.36
2022-10-19T21:42:40.112Z,69.80
2022-10-19T21:45:30.728Z,69.51
2022-10-19T21:48:18.003Z,69.43
2022-10-19T21:51:05.070Z,68.98
2022-10-19T21:53:52.066Z,69.52
2022-10-19T21:56:39.083Z,69.40
2022-10-19T21:59:26.277Z,69.57
2022-10-19T22:02:14.049Z,69.22
2022-10-19T22:05:00.981Z,69.62
2022-10-19T22:07:47.968Z,69.92
2022-10-19T22:10:34.886Z,69.55
2022-10-19T22:13:21.881Z,69.68
2022-10-19T22:16:08.744Z,69.58
2022-10-19T22:18:56.556Z,69.69
2022-10-19T22:21:50.233Z,69.88
2022-10-19T22:24:37.189Z,69.87
2022-10-19T22:27:24.114Z,69.81
2022-10-19T22:30:12.409Z,70.00
2022-10-19T22:32:59.252Z,70.18
2022-10-19T22:35:46.823Z,69.95
2022-10-19T22:38:33.808Z,69.92
2022-10-19T22:41:20.876Z,70.04
2022-10-19T22:44:07.775Z,70.15
2022-10-19T22:46:54.836Z,69.70
2022-10-19T22:49:41.874Z,70.13
2022-10-19T22:52:28.801Z,70.12
2022-10-19T22:55:15.840Z,70.25
2022-10-19T22:58:02.719Z,69.99
2022-10-19T23:00:49.976Z,70.27
2022-10-19T23:03:36.840Z,70.10
2022-10-19T23:06:23.936Z,70.28
2022-10-19T23:09:11.233Z,70.44
2022-10-19T23:11:58.279Z,70.16
2022-10-19T23:14:45.383Z,70.16
2022-10-19T23:17:32.430Z,70.30
2022-10-19T23:20:19.526Z,70.23
2022-10-19T23:23:06.435Z,70.38
2022-10-19T23:25:53.668Z,70.28
2022-10-19T23:28:40.640Z,70.54
2022-10-19T23:31:33.887Z,70.34
2022-10-19T23:34:20.828Z,70.57
2022-10-19T23:37:08.036Z,70.80
2022-10-19T23:39:54.817Z,70.54
2022-10-19T23:42:41.808Z,70.66
2022-10-19T23:45:29.068Z,70.46
2022-10-19T23:48:16.105Z,70.67
2022-10-19T23:51:02.994Z,70.57
2022-10-19T23:53:51.885Z,70.51
2022-10-19T23:56:45.945Z,70.79
2022-10-19T23:59:33.057Z,70.82
